Time;durP1;ratioP1;P1;durP2;ratioP2;P2;SDS_P1;SDS_P2;PMS_P1;PMS_P2;Temp;Humidity;BMP_temperature;BMP_pressure;BME280_temperature;BME280_humidity;BME280_pressure;Samples;Min_cycle;Max_cycle;Signal;HPM_P1;HPM_P2
2022/08/25 00:01:51;;;;;;;13.55;6.65;;;;;;;20.52;67.01;100195.21;1772728;79;21093;-77
2022/08/25 00:04:19;;;;;;;12.05;6.62;;;;;;;20.42;66.48;100191.67;1756414;80;21584;-77
2022/08/25 00:06:51;;;;;;;10.10;6.45;;;;;;;20.37;66.34;100196.89;1788836;79;21013;-79
2022/08/25 00:09:25;;;;;;;12.18;5.92;;;;;;;20.29;67.08;100187.74;1770918;79;21053;-77
2022/08/25 00:11:52;;;;;;;11.03;5.65;;;;;;;20.27;67.28;100193.88;1777528;79;21048;-76
2022/08/25 00:14:27;;;;;;;12.75;6.08;;;;;;;20.33;67.14;100190.30;1783081;79;21085;-77
2022/08/25 00:16:56;;;;;;;14.73;5.95;;;;;;;20.26;67.02;100180.89;1754969;79;21164;-75
2022/08/25 00:19:27;;;;;;;8.35;5.92;;;;;;;20.32;67.05;100192.67;1751985;81;21189;-77
2022/08/25 00:21:55;;;;;;;10.65;6.62;;;;;;;20.30;67.11;100190.73;1745496;80;21065;-78
2022/08/25 00:24:21;;;;;;;9.08;5.62;;;;;;;20.28;67.45;100192.32;1763223;79;21092;-77
2022/08/25 00:26:50;;;;;;;12.60;6.72;;;;;;;20.26;67.63;100190.87;1802960;78;21026;-77
2022/08/25 00:29:17;;;;;;;12.35;6.62;;;;;;;20.18;67.69;100193.32;1771024;78;21049;-75
2022/08/25 00:31:44;;;;;;;10.03;6.62;;;;;;;20.11;67.97;100196.09;1776234;79;21077;-76
2022/08/25 00:34:14;;;;;;;14.47;6.65;;;;;;;20.04;67.83;100191.26;1778796;79;21037;-76
2022/08/25 00:36:41;;;;;;;16.25;6.65;;;;;;;20.01;67.91;100196.58;1790941;79;21205;-76
2022/08/25 00:39:08;;;;;;;10.43;6.47;;;;;;;19.99;68.32;100193.78;1761010;80;21532;-77
2022/08/25 00:41:35;;;;;;;12.65;6.37;;;;;;;19.92;68.43;100195.19;1769255;80;21068;-77
2022/08/25 00:44:05;;;;;;;10.13;6.10;;;;;;;19.85;67.99;100195.75;1784613;79;21029;-76
2022/08/25 00:46:39;;;;;;;13.30;6.33;;;;;;;19.82;68.04;100200.24;1776561;79;21043;-80
2022/08/25 00:49:16;;;;;;;20.48;6.80;;;;;;;19.79;67.96;100191.23;1795854;78;21564;-77
2022/08/25 00:52:05;;;;;;;12.03;6.28;;;;;;;19.79;68.00;100198.78;1780754;78;21050;-77
2022/08/25 00:54:37;;;;;;;10.72;6.25;;;;;;;19.74;67.93;100187.85;1809588;78;21030;-76
2022/08/25 00:57:05;;;;;;;11.35;5.92;;;;;;;19.73;67.86;100193.45;1789269;78;21040;-76
2022/08/25 00:59:32;;;;;;;12.25;5.90;;;;;;;19.78;67.82;100197.65;1764962;79;21064;-73
2022/08/25 01:01:59;;;;;;;11.43;5.97;;;;;;;19.88;67.36;100198.55;1813294;78;21619;-75
2022/08/25 01:04:25;;;;;;;12.85;6.12;;;;;;;19.89;67.19;100196.95;1801769;78;21080;-75
2022/08/25 01:06:52;;;;;;;8.43;6.08;;;;;;;19.89;67.09;100197.48;1768857;79;21057;-78
2022/08/25 01:09:18;;;;;;;11.48;5.97;;;;;;;19.91;67.01;100199.44;1770405;79;21030;-79
2022/08/25 01:11:45;;;;;;;8.43;6.30;;;;;;;19.92;66.96;100197.88;1774481;79;21100;-77
2022/08/25 01:14:15;;;;;;;11.93;5.15;;;;;;;19.95;66.92;100195.26;1763120;80;21224;-76
2022/08/25 01:16:42;;;;;;;8.93;5.67;;;;;;;19.97;66.73;100193.17;1791448;78;21071;-79
2022/08/25 01:19:10;;;;;;;17.07;6.10;;;;;;;19.98;66.66;100188.91;1799985;78;21553;-77
2022/08/25 01:21:45;;;;;;;10.85;5.50;;;;;;;19.98;66.41;100190.27;1800262;78;21006;-78
2022/08/25 01:24:52;;;;;;;12.68;5.28;;;;;;;19.97;66.31;100184.58;1790889;79;21671;-79
2022/08/25 01:27:18;;;;;;;10.58;5.90;;;;;;;19.98;66.18;100182.70;1802301;78;21875;-78
2022/08/25 01:29:45;;;;;;;14.58;6.78;;;;;;;19.96;66.00;100181.56;1806145;79;21027;-79
2022/08/25 01:32:12;;;;;;;11.08;5.65;;;;;;;19.95;66.13;100179.08;1797906;78;21061;-77
2022/08/25 01:34:43;;;;;;;9.88;5.67;;;;;;;19.92;65.89;100179.54;1797671;78;21017;-78
2022/08/25 01:37:11;;;;;;;13.80;5.42;;;;;;;19.89;65.85;100179.43;1798851;79;21075;-78
2022/08/25 01:39:37;;;;;;;8.25;5.20;;;;;;;19.89;65.88;100185.36;1798162;79;21216;-78
2022/08/25 01:42:18;;;;;;;12.68;5.55;;;;;;;19.88;65.84;100180.49;1812760;78;20994;-79
2022/08/25 01:44:46;;;;;;;14.20;5.90;;;;;;;19.88;65.84;100178.33;1796058;78;21077;-75
2022/08/25 01:47:13;;;;;;;12.15;5.37;;;;;;;19.87;65.80;100178.83;1799923;78;21012;-78
2022/08/25 01:49:39;;;;;;;9.25;5.45;;;;;;;19.86;65.84;100178.54;1778207;79;21049;-76
2022/08/25 01:52:21;;;;;;;11.25;5.30;;;;;;;19.86;65.82;100180.39;1800144;79;21185;-77
2022/08/25 01:54:47;;;;;;;12.90;5.87;;;;;;;19.84;65.82;100180.10;1784569;78;21053;-77
2022/08/25 01:57:14;;;;;;;11.53;5.80;;;;;;;19.83;65.90;100185.70;1785271;78;21344;-77
2022/08/25 01:59:41;;;;;;;11.03;6.25;;;;;;;19.82;65.86;100187.58;1810322;78;21025;-77
2022/08/25 02:02:08;;;;;;;9.58;5.60;;;;;;;19.81;65.85;100183.75;1795109;78;21030;-79
2022/08/25 02:04:35;;;;;;;7.97;5.70;;;;;;;19.79;65.86;100181.27;1809452;78;21537;-77
2022/08/25 02:07:04;;;;;;;12.25;5.90;;;;;;;19.78;65.81;100182.33;1789947;79;21068;-76
2022/08/25 02:09:31;;;;;;;12.78;5.95;;;;;;;19.75;65.90;100186.80;1800196;79;21045;-76
2022/08/25 02:11:58;;;;;;;7.35;5.92;;;;;;;19.76;65.84;100187.61;1766384;78;21024;-75
2022/08/25 02:14:25;;;;;;;9.78;5.65;;;;;;;19.74;65.82;100185.16;1766574;79;21050;-75
2022/08/25 02:16:52;;;;;;;8.95;5.72;;;;;;;19.74;65.87;100183.81;1794633;79;21159;-76
2022/08/25 02:19:19;;;;;;;10.18;6.22;;;;;;;19.74;65.75;100187.85;1790413;79;21632;-77
2022/08/25 02:21:47;;;;;;;13.55;5.72;;;;;;;19.74;65.79;100193.24;1807190;78;21065;-79
2022/08/25 02:25:39;;;;;;;10.35;5.12;;;;;;;19.79;65.81;100181.80;1802563;78;22731;-79
2022/08/25 02:28:07;;;;;;;13.50;6.10;;;;;;;19.75;65.71;100192.19;1773582;80;21050;-78
2022/08/25 02:30:38;;;;;;;11.85;6.47;;;;;;;19.74;65.89;100190.55;1778681;80;21139;-78
2022/08/25 02:33:05;;;;;;;12.33;6.30;;;;;;;19.72;66.00;100184.55;1767443;80;21240;-77
2022/08/25 02:35:32;;;;;;;7.37;5.67;;;;;;;19.70;66.02;100195.19;1765024;80;21005;-77
2022/08/25 02:37:58;;;;;;;9.68;5.70;;;;;;;19.68;66.05;100191.36;1766514;80;21173;-76
2022/08/25 02:40:25;;;;;;;11.97;6.50;;;;;;;19.65;66.25;100183.73;1769037;80;20989;-77
2022/08/25 02:42:51;;;;;;;11.88;6.35;;;;;;;19.63;66.35;100190.67;1774187;80;21215;-78
2022/08/25 02:45:18;;;;;;;14.33;6.53;;;;;;;19.61;66.37;100181.16;1771329;80;20959;-78
2022/08/25 02:47:45;;;;;;;10.40;6.10;;;;;;;19.58;66.47;100191.02;1779548;80;21084;-77
2022/08/25 02:50:11;;;;;;;9.83;5.83;;;;;;;19.56;66.52;100184.48;1763736;80;21522;-79
2022/08/25 02:52:39;;;;;;;8.40;5.70;;;;;;;19.55;66.64;100186.08;1786086;80;21042;-76
2022/08/25 02:55:09;;;;;;;14.35;6.05;;;;;;;19.52;66.76;100184.62;1771112;80;21814;-78
2022/08/25 02:57:37;;;;;;;10.85;6.62;;;;;;;19.49;66.92;100185.07;1771970;80;21057;-76
2022/08/25 03:00:05;;;;;;;15.00;5.95;;;;;;;19.45;67.06;100187.86;1774174;80;21048;-76
2022/08/25 03:02:32;;;;;;;11.73;5.90;;;;;;;19.41;67.18;100188.84;1774027;80;21054;-75
2022/08/25 03:04:59;;;;;;;11.63;6.17;;;;;;;19.44;67.37;100188.92;1786555;80;21002;-72
2022/08/25 03:07:25;;;;;;;11.05;5.78;;;;;;;19.51;67.40;100192.41;1771350;80;21112;-74
2022/08/25 03:09:52;;;;;;;12.45;6.22;;;;;;;19.50;67.49;100198.02;1770387;80;21090;-75
2022/08/25 03:12:19;;;;;;;8.43;5.80;;;;;;;19.47;67.51;100195.23;1771149;80;21085;-74
2022/08/25 03:14:45;;;;;;;10.65;6.22;;;;;;;19.45;67.57;100194.10;1771189;80;21108;-73
2022/08/25 03:17:12;;;;;;;9.75;6.30;;;;;;;19.42;67.68;100189.13;1764808;80;21104;-75
2022/08/25 03:19:39;;;;;;;12.03;6.50;;;;;;;19.39;67.66;100189.58;1769549;80;21281;-76
2022/08/25 03:22:05;;;;;;;9.63;6.00;;;;;;;19.37;67.82;100192.16;1776926;80;21558;-78
2022/08/25 03:24:32;;;;;;;11.33;6.17;;;;;;;19.34;67.76;100189.39;1753020;80;21062;-75
2022/08/25 03:26:58;;;;;;;12.93;6.15;;;;;;;19.33;67.87;100186.91;1755226;81;21061;-76
2022/08/25 03:29:29;;;;;;;11.97;5.87;;;;;;;19.29;67.96;100187.84;1756032;81;21228;-76
2022/08/25 03:31:56;;;;;;;11.18;6.05;;;;;;;19.27;68.15;100186.42;1754588;81;21950;-76
2022/08/25 03:34:24;;;;;;;9.90;6.03;;;;;;;19.24;68.40;100185.81;1741628;81;21048;-75
2022/08/25 03:36:52;;;;;;;12.68;6.67;;;;;;;19.30;68.46;100181.97;1750444;81;21024;-76
2022/08/25 03:39:19;;;;;;;13.75;6.42;;;;;;;19.38;68.46;100186.56;1750266;81;21044;-75
2022/08/25 03:41:46;;;;;;;10.78;5.83;;;;;;;19.37;68.47;100184.93;1755897;81;21040;-75
2022/08/25 03:44:13;;;;;;;11.73;5.87;;;;;;;19.38;68.42;100191.95;1753665;81;21143;-76
2022/08/25 03:46:43;;;;;;;14.33;6.67;;;;;;;19.42;68.52;100199.91;1750472;81;21016;-76
2022/08/25 03:49:17;;;;;;;7.87;6.22;;;;;;;19.47;68.79;100199.78;1756785;81;21028;-75
2022/08/25 03:51:46;;;;;;;12.55;6.08;;;;;;;19.51;68.22;100192.91;1755396;81;21116;-78
2022/08/25 03:54:19;;;;;;;11.85;6.12;;;;;;;19.56;68.30;100187.71;1740187;81;22048;-75
2022/08/25 03:56:45;;;;;;;12.63;6.87;;;;;;;19.60;68.10;100184.89;1752997;81;21246;-77
2022/08/25 03:59:12;;;;;;;14.93;7.00;;;;;;;19.64;67.89;100186.10;1751291;81;21020;-79
2022/08/25 04:01:40;;;;;;;10.90;6.42;;;;;;;19.65;67.73;100189.11;1756409;81;21652;-77
2022/08/25 04:04:09;;;;;;;12.50;6.25;;;;;;;19.72;67.66;100187.25;1756657;81;21028;-76
2022/08/25 04:06:38;;;;;;;8.10;6.30;;;;;;;19.79;67.49;100178.57;1748904;81;21035;-79
2022/08/25 04:09:06;;;;;;;14.15;5.95;;;;;;;19.90;67.50;100171.66;1754881;81;21186;-79
2022/08/25 04:11:32;;;;;;;14.43;6.60;;;;;;;20.12;67.25;100187.46;1758875;81;21004;-76
2022/08/25 04:14:00;;;;;;;12.45;6.97;;;;;;;20.33;66.91;100183.55;1754861;80;21083;-78
2022/08/25 04:16:30;;;;;;;15.28;6.67;;;;;;;20.50;66.59;100181.94;1757395;81;21599;-77
2022/08/25 04:18:57;;;;;;;11.35;6.30;;;;;;;20.60;66.15;100178.22;1758986;81;21084;-77
2022/08/25 04:21:24;;;;;;;13.58;7.12;;;;;;;20.68;65.81;100174.94;1744099;81;21145;-79
2022/08/25 04:23:52;;;;;;;10.15;6.78;;;;;;;20.72;65.66;100183.70;1753826;81;20988;-79
2022/08/25 04:26:29;;;;;;;13.88;7.53;;;;;;;20.79;65.49;100176.89;1759558;81;21040;-75
2022/08/25 04:28:59;;;;;;;15.50;7.37;;;;;;;20.84;65.47;100178.91;1753583;81;21050;-75
2022/08/25 04:31:26;;;;;;;19.23;7.22;;;;;;;20.87;65.26;100175.77;1756906;81;21562;-75
2022/08/25 04:33:52;;;;;;;9.98;6.80;;;;;;;20.88;65.26;100170.66;1757814;81;21054;-75
2022/08/25 04:36:20;;;;;;;12.15;7.45;;;;;;;20.88;65.20;100171.50;1748246;81;21541;-77
2022/08/25 04:38:48;;;;;;;16.93;8.20;;;;;;;20.91;65.12;100159.41;1754161;81;21031;-77
2022/08/25 04:41:18;;;;;;;13.80;7.78;;;;;;;20.97;65.03;100168.77;1754454;81;21066;-78
2022/08/25 04:43:44;;;;;;;16.57;7.92;;;;;;;21.03;64.89;100167.05;1745425;81;21049;-75
2022/08/25 04:46:16;;;;;;;13.28;8.10;;;;;;;21.07;64.91;100159.31;1758686;81;21067;-76
2022/08/25 04:48:42;;;;;;;14.25;7.62;;;;;;;21.10;64.90;100154.83;1758590;81;21046;-78
2022/08/25 04:51:13;;;;;;;16.07;7.85;;;;;;;21.14;65.01;100156.02;1756612;81;21074;-75
2022/08/25 04:53:40;;;;;;;14.15;8.00;;;;;;;21.17;64.90;100155.54;1758745;81;21035;-75
2022/08/25 04:56:10;;;;;;;16.75;8.63;;;;;;;21.18;64.84;100160.72;1758781;81;21046;-77
2022/08/25 04:58:37;;;;;;;15.55;7.90;;;;;;;21.22;64.57;100152.99;1757415;81;21190;-76
2022/08/25 05:01:11;;;;;;;18.90;7.78;;;;;;;21.26;64.29;100154.18;1758656;81;21507;-74
2022/08/25 05:03:37;;;;;;;;;;;;;;;21.30;64.21;100149.97;1760906;81;21139;-76
2022/08/25 05:06:04;;;;;;;13.18;7.70;;;;;;;21.34;64.04;100151.19;1758822;81;20176;-76
2022/08/25 05:08:31;;;;;;;11.43;7.00;;;;;;;21.37;63.99;100148.54;1758761;81;21035;-76
2022/08/25 05:10:58;;;;;;;13.83;7.53;;;;;;;21.41;63.72;100145.14;1757975;81;21157;-75
2022/08/25 05:13:25;;;;;;;13.08;7.25;;;;;;;21.45;63.44;100150.13;1758707;81;21040;-75
2022/08/25 05:15:56;;;;;;;9.68;6.72;;;;;;;21.50;62.82;100151.09;1755956;81;21036;-77
2022/08/25 05:18:25;;;;;;;11.00;6.12;;;;;;;21.55;62.30;100149.84;1758996;81;21067;-78
2022/08/25 05:20:55;;;;;;;13.65;7.17;;;;;;;21.60;61.98;100143.23;1737773;81;21042;-75
2022/08/25 05:23:23;;;;;;;10.70;6.75;;;;;;;21.67;61.73;100146.36;1758896;81;21093;-76
2022/08/25 05:25:50;;;;;;;12.33;7.03;;;;;;;21.72;61.31;100143.27;1745471;81;21029;-76
2022/08/25 05:28:19;;;;;;;11.30;7.37;;;;;;;21.79;60.73;100141.28;1734892;82;21027;-77
2022/08/25 05:30:47;;;;;;;9.13;6.70;;;;;;;21.86;60.25;100140.34;1714232;83;21022;-76
2022/08/25 05:33:15;;;;;;;8.95;7.30;;;;;;;21.92;60.15;100134.00;1715231;83;21069;-77
2022/08/25 05:35:43;;;;;;;10.30;7.60;;;;;;;21.98;60.19;100138.47;1715029;83;21149;-78
2022/08/25 05:38:10;;;;;;;10.78;6.60;;;;;;;22.03;60.03;100138.61;1713810;83;21058;-78
2022/08/25 05:40:37;;;;;;;9.68;7.37;;;;;;;22.10;59.65;100142.03;1705110;83;21053;-77
2022/08/25 05:43:04;;;;;;;13.85;7.22;;;;;;;22.15;59.93;100142.13;1716980;82;21053;-77
2022/08/25 05:45:31;;;;;;;10.15;7.67;;;;;;;22.25;59.64;100143.47;1745996;82;21025;-77
2022/08/25 05:47:58;;;;;;;12.78;7.28;;;;;;;22.31;59.18;100142.52;1743413;81;21200;-77
2022/08/25 05:50:25;;;;;;;13.53;7.42;;;;;;;22.38;59.53;100142.69;1721516;82;21062;-77
2022/08/25 05:52:51;;;;;;;11.97;6.65;;;;;;;22.46;59.68;100139.34;1713646;83;21061;-76
2022/08/25 05:55:18;;;;;;;8.95;7.00;;;;;;;22.54;59.47;100141.17;1712148;83;21021;-77
2022/08/25 05:57:44;;;;;;;17.73;7.42;;;;;;;22.64;58.87;100134.30;1706659;83;21026;-76
2022/08/25 06:00:11;;;;;;;13.48;7.25;;;;;;;22.71;58.66;100135.01;1713816;83;21496;-77
2022/08/25 06:02:42;;;;;;;12.03;7.30;;;;;;;22.80;58.53;100136.29;1713832;83;20994;-80
2022/08/25 06:05:12;;;;;;;9.13;6.87;;;;;;;22.86;58.18;100134.52;1713711;83;21479;-81
2022/08/25 06:07:39;;;;;;;14.10;7.47;;;;;;;22.89;58.30;100128.09;1713249;83;21055;-80
2022/08/25 06:10:10;;;;;;;9.85;7.33;;;;;;;22.96;58.68;100133.36;1713992;83;21065;-80
2022/08/25 06:12:37;;;;;;;13.20;7.87;;;;;;;23.03;58.25;100131.91;1701755;83;21146;-80
2022/08/25 06:15:04;;;;;;;9.40;7.33;;;;;;;23.09;57.71;100139.88;1713387;83;21082;-83
2022/08/25 06:17:31;;;;;;;18.45;8.18;;;;;;;23.17;57.28;100134.61;1713576;83;21625;-79
2022/08/25 06:19:57;;;;;;;8.98;7.60;;;;;;;23.24;57.16;100129.06;1728804;82;21057;-81
2022/08/25 06:22:24;;;;;;;12.58;7.92;;;;;;;23.31;57.04;100129.20;1713470;83;21077;-79
2022/08/25 06:24:52;;;;;;;13.88;7.25;;;;;;;23.37;56.64;100124.67;1721241;81;21113;-78
2022/08/25 06:27:18;;;;;;;8.88;7.12;;;;;;;23.43;56.28;100128.30;1763424;81;20987;-79
2022/08/25 06:29:45;;;;;;;11.12;7.65;;;;;;;23.50;56.25;100128.98;1762568;81;21031;-79
2022/08/25 06:32:11;;;;;;;11.68;8.10;;;;;;;23.56;56.31;100134.78;1756611;81;21044;-81
2022/08/25 06:34:38;;;;;;;12.28;7.42;;;;;;;23.64;55.89;100135.75;1736058;81;21557;-79
2022/08/25 06:37:04;;;;;;;13.10;8.43;;;;;;;23.73;55.72;100136.97;1764505;81;21055;-80
2022/08/25 06:39:31;;;;;;;14.93;8.28;;;;;;;23.80;55.36;100133.30;1765599;81;20942;-80
2022/08/25 06:41:58;;;;;;;10.68;7.53;;;;;;;23.85;54.98;100133.40;1767803;81;21034;-74
2022/08/25 06:44:26;;;;;;;14.47;8.45;;;;;;;23.89;55.05;100136.75;1762562;81;21053;-74
2022/08/25 06:46:53;;;;;;;13.03;8.28;;;;;;;23.94;54.89;100131.92;1763981;81;21006;-76
2022/08/25 06:49:19;;;;;;;11.85;7.80;;;;;;;23.99;54.58;100145.58;1762956;81;21191;-74
2022/08/25 06:51:45;;;;;;;13.78;8.33;;;;;;;24.02;54.60;100138.83;1763738;81;21051;-74
2022/08/25 06:54:12;;;;;;;14.20;8.63;;;;;;;24.05;54.42;100140.52;1763971;81;21542;-74
2022/08/25 06:56:40;;;;;;;13.28;7.78;;;;;;;24.10;54.42;100139.22;1761172;81;21019;-72
2022/08/25 06:59:06;;;;;;;12.05;7.87;;;;;;;24.14;54.39;100151.25;1760296;81;21101;-74
2022/08/25 07:01:33;;;;;;;17.45;8.63;;;;;;;24.19;54.68;100146.97;1763230;81;21450;-73
2022/08/25 07:04:01;;;;;;;14.10;8.18;;;;;;;24.22;54.61;100145.94;1757225;81;21024;-74
2022/08/25 07:06:34;;;;;;;12.53;7.72;;;;;;;24.26;54.65;100144.37;1754203;81;21051;-75
2022/08/25 07:08:58;;;;;;;14.65;8.10;;;;;;;24.32;54.83;100143.91;1755850;81;21032;-74
2022/08/25 07:11:26;;;;;;;11.35;7.97;;;;;;;24.40;54.53;100142.66;1762761;81;21033;-73
2022/08/25 07:13:53;;;;;;;10.35;8.23;;;;;;;24.44;54.27;100143.27;1763136;81;21126;-75
2022/08/25 07:16:19;;;;;;;10.00;7.20;;;;;;;24.49;54.32;100140.62;1748877;80;21106;-71
2022/08/25 07:18:46;;;;;;;10.90;8.55;;;;;;;24.57;54.22;100143.98;1751587;81;21063;-72
2022/08/25 07:21:13;;;;;;;12.80;7.67;;;;;;;24.62;54.18;100144.07;1756075;81;20998;-74
2022/08/25 07:23:40;;;;;;;14.80;8.43;;;;;;;24.67;54.14;100142.79;1755266;81;21185;-75
2022/08/25 07:26:24;;;;;;;9.48;8.38;;;;;;;24.73;54.11;100142.59;1748052;80;21072;-75
2022/08/25 07:28:50;;;;;;;10.10;8.35;;;;;;;24.81;54.00;100138.61;1755666;81;21078;-75
2022/08/25 07:31:18;;;;;;;15.00;8.45;;;;;;;24.90;53.75;100141.72;1756895;81;21010;-74
2022/08/25 07:36:30;;;;;;;11.35;8.00;;;;;;;25.04;53.81;100136.72;1746878;81;21024;-76
2022/08/25 07:38:58;;;;;;;11.15;8.28;;;;;;;25.13;53.67;100125.69;1753090;81;21837;-74
2022/08/25 07:41:25;;;;;;;11.95;8.73;;;;;;;25.21;53.39;100124.41;1748674;81;21011;-75
2022/08/25 07:43:54;;;;;;;16.37;8.78;;;;;;;25.28;53.19;100117.72;1749986;81;21010;-75
2022/08/25 07:46:21;;;;;;;12.03;8.50;;;;;;;25.37;53.04;100123.50;1753777;81;22323;-72
2022/08/25 07:48:49;;;;;;;13.30;8.15;;;;;;;25.46;53.03;100121.16;1744954;81;21022;-76
2022/08/25 07:51:16;;;;;;;13.28;8.20;;;;;;;25.59;52.75;100113.09;1753525;81;21245;-76
2022/08/25 07:53:42;;;;;;;13.58;8.18;;;;;;;25.72;52.75;100111.85;1761891;81;20957;-76
2022/08/25 07:56:14;;;;;;;12.30;7.80;;;;;;;25.83;52.27;100110.86;1748825;81;21015;-76
2022/08/25 07:58:41;;;;;;;13.65;7.60;;;;;;;25.94;51.90;100107.16;1743195;81;21118;-76
2022/08/25 08:01:15;;;;;;;10.50;7.80;;;;;;;26.05;51.53;100100.69;1750781;81;21125;-76
2022/08/25 08:03:41;;;;;;;17.30;8.63;;;;;;;26.15;51.14;100104.02;1746457;81;21891;-75
2022/08/25 08:06:13;;;;;;;10.40;7.65;;;;;;;26.25;50.72;100099.17;1757656;81;21086;-76
2022/08/25 08:08:43;;;;;;;15.65;7.90;;;;;;;26.35;50.51;100094.32;1744567;81;21042;-74
2022/08/25 08:11:25;;;;;;;10.90;8.20;;;;;;;26.49;50.32;100091.41;1744248;81;21557;-74
2022/08/25 08:13:53;;;;;;;14.58;6.80;;;;;;;26.60;49.75;100094.50;1742469;81;21113;-75
2022/08/25 08:16:22;;;;;;;13.03;6.97;;;;;;;26.75;49.29;100088.27;1744644;80;21864;-75
2022/08/25 08:18:49;;;;;;;12.40;7.97;;;;;;;26.92;49.05;100081.80;1748958;81;21011;-78
2022/08/25 08:21:19;;;;;;;10.60;7.22;;;;;;;27.08;48.52;100082.09;1734405;81;21054;-76
2022/08/25 08:23:47;;;;;;;15.15;8.35;;;;;;;27.22;48.28;100084.59;1750976;80;21078;-78
2022/08/25 08:26:14;;;;;;;13.80;7.67;;;;;;;27.39;47.90;100080.81;1749007;81;21032;-77
2022/08/25 08:28:42;;;;;;;10.75;7.22;;;;;;;27.59;47.26;100075.92;1753435;81;21086;-79
2022/08/25 08:31:09;;;;;;;13.60;7.12;;;;;;;27.80;46.80;100071.28;1743264;81;21171;-78
2022/08/25 08:33:37;;;;;;;17.27;8.70;;;;;;;28.00;46.81;100069.89;1752403;81;21131;-79
2022/08/25 08:36:09;;;;;;;17.02;7.78;;;;;;;28.22;46.56;100074.20;1754529;81;21078;-78
2022/08/25 08:38:40;;;;;;;17.75;8.53;;;;;;;28.42;45.93;100068.69;1758129;81;21097;-78
2022/08/25 08:44:46;;;;;;;14.90;7.20;;;;;;;28.81;45.37;100063.89;1748995;81;21025;-82
2022/08/25 08:48:00;;;;;;;13.13;9.18;;;;;;;29.09;44.63;100054.72;1729924;81;21547;-79
2022/08/25 08:50:35;;;;;;;16.67;10.30;;;;;;;29.32;44.22;100055.11;1740046;81;21078;-79
2022/08/25 08:53:10;;;;;;;16.37;8.80;;;;;;;29.55;44.01;100053.56;1757866;81;21070;-84
2022/08/25 08:55:43;;;;;;;16.60;8.25;;;;;;;29.78;43.76;100050.64;1755690;81;21539;-81
2022/08/25 08:58:12;;;;;;;;;;;;;;;30.01;43.25;100050.97;1759018;81;21512;-78
2022/08/25 09:00:47;;;;;;;9.60;7.65;;;;;;;30.24;43.06;100046.05;1748540;81;20160;-80
2022/08/25 09:04:06;;;;;;;11.03;6.58;;;;;;;30.50;42.84;100041.65;1750965;80;20952;-81
2022/08/25 09:06:44;;;;;;;9.53;7.22;;;;;;;30.80;42.40;100040.42;1757335;81;21149;-84
2022/08/25 09:09:28;;;;;;;16.65;10.68;;;;;;;31.19;41.83;100034.40;1758606;81;21227;-85
2022/08/25 09:12:21;;;;;;;12.43;7.28;;;;;;;31.57;40.76;100039.86;1745956;81;21604;-83
2022/08/25 09:16:53;;;;;;;7.80;6.42;;;;;;;32.09;40.25;100038.62;1761519;79;21014;-81
2022/08/25 09:18:13;;;;;;;8.60;5.78;;;;;;;32.75;38.56;100037.01;1696913;83;21090;-81
2022/08/25 09:20:51;;;;;;;9.63;5.08;;;;;;;33.52;37.45;100036.58;1749707;81;21050;-81
2022/08/25 09:23:53;;;;;;;7.30;5.58;;;;;;;34.18;36.35;100029.88;1753814;81;21795;-79
2022/08/25 09:26:46;;;;;;;9.88;5.33;;;;;;;34.84;35.85;100026.29;1754028;81;28324;-84
2022/08/25 09:29:17;;;;;;;9.40;5.25;;;;;;;35.59;34.89;100019.97;1756129;81;21514;-84
2022/08/25 09:31:44;;;;;;;16.48;8.50;;;;;;;36.30;33.59;100024.69;1728393;81;21152;-84
2022/08/25 09:34:19;;;;;;;5.92;5.25;;;;;;;36.82;32.96;100020.75;1762845;81;20992;-82
2022/08/25 09:36:47;;;;;;;8.33;4.90;;;;;;;37.36;32.32;100022.98;1761700;81;21978;-82
2022/08/25 09:39:13;;;;;;;12.23;7.28;;;;;;;37.97;31.51;100020.09;1764840;81;21026;-85
2022/08/25 09:41:48;;;;;;;10.38;5.25;;;;;;;38.49;30.82;100011.05;1755344;81;21051;-83
2022/08/25 09:44:21;;;;;;;8.18;5.10;;;;;;;38.97;30.33;100008.52;1754520;81;21547;-87
2022/08/25 09:47:02;;;;;;;9.90;4.60;;;;;;;39.36;29.94;100006.62;1757563;81;21723;-87
2022/08/25 09:49:45;;;;;;;11.30;5.05;;;;;;;39.69;29.65;100007.11;1761779;81;21650;-83
2022/08/25 09:52:37;;;;;;;5.80;4.60;;;;;;;40.08;29.59;99996.18;1757160;81;21026;-85
2022/08/25 09:55:25;;;;;;;9.65;4.37;;;;;;;40.53;28.54;99991.23;1761118;81;22091;-84
2022/08/25 09:57:54;;;;;;;5.65;4.47;;;;;;;40.85;28.16;99992.50;1757872;81;21047;-87
2022/08/25 10:00:29;;;;;;;6.87;4.60;;;;;;;41.22;27.74;99986.47;1764278;81;22089;-90
2022/08/25 10:03:27;;;;;;;6.78;4.55;;;;;;;41.61;27.02;99986.34;1767168;81;21041;-82
2022/08/25 10:06:10;;;;;;;8.38;4.12;;;;;;;41.91;26.98;99976.70;1690008;83;21337;-81
2022/08/25 10:08:48;;;;;;;7.05;3.58;;;;;;;42.19;26.62;99976.94;1710598;82;21029;-83
2022/08/25 10:11:32;;;;;;;7.12;4.15;;;;;;;42.34;26.19;99977.34;1680358;85;21141;-83
2022/08/25 10:14:27;;;;;;;4.22;3.42;;;;;;;42.51;25.97;99983.59;1690298;83;21091;-82
2022/08/25 10:17:26;;;;;;;7.15;4.50;;;;;;;42.80;25.10;99963.19;1700872;83;21147;-91
2022/08/25 10:20:10;;;;;;;5.22;3.58;;;;;;;43.08;24.89;99972.28;1665062;83;21026;-78
2022/08/25 10:22:41;;;;;;;4.33;3.45;;;;;;;42.94;24.15;99958.41;1690695;83;21438;-84
2022/08/25 10:25:14;;;;;;;6.12;3.35;;;;;;;42.74;23.60;99956.34;1684449;83;21066;-85
2022/08/25 10:28:08;;;;;;;7.60;3.35;;;;;;;42.56;23.54;99959.53;1688163;83;21042;-78
2022/08/25 10:30:59;;;;;;;5.50;3.65;;;;;;;42.51;23.68;99964.84;1672769;84;21194;-83
2022/08/25 10:33:31;;;;;;;7.62;3.20;;;;;;;42.55;23.32;99957.91;1737478;81;21097;-80
2022/08/25 10:36:32;;;;;;;6.20;3.65;;;;;;;42.67;23.31;99947.87;1744013;81;21094;-82
2022/08/25 10:39:00;;;;;;;5.75;4.00;;;;;;;42.95;23.30;99946.02;1748279;80;21044;-84
2022/08/25 10:41:45;;;;;;;7.97;3.47;;;;;;;43.39;23.15;99938.89;1746080;81;21512;-84
2022/08/25 10:47:59;;;;;;;7.53;4.08;;;;;;;44.15;22.79;99927.66;1751840;81;21084;-84
2022/08/25 10:50:42;;;;;;;8.18;3.30;;;;;;;44.04;22.61;99937.35;1754144;80;21104;-85
2022/08/25 10:53:45;;;;;;;6.60;3.50;;;;;;;43.62;22.61;99930.86;1754461;81;20973;-79
2022/08/25 10:56:22;;;;;;;9.48;3.40;;;;;;;43.57;23.23;99927.84;1750156;81;21022;-85
2022/08/25 10:59:09;;;;;;;8.38;3.30;;;;;;;43.93;22.77;99928.12;1753004;81;21542;-83
2022/08/25 11:02:07;;;;;;;5.22;3.27;;;;;;;44.32;21.85;99929.73;1745146;81;21098;-85
2022/08/25 11:04:43;;;;;;;3.60;3.05;;;;;;;44.42;21.36;99919.77;1754717;81;21018;-85
2022/08/25 11:07:27;;;;;;;3.87;3.08;;;;;;;44.48;21.58;99920.98;1748444;81;21046;-83
2022/08/25 11:10:00;;;;;;;6.58;3.10;;;;;;;44.71;21.25;99926.30;1749451;81;21042;-83
2022/08/25 11:12:39;;;;;;;4.15;3.25;;;;;;;44.76;21.01;99913.91;1754992;80;21589;-84
2022/08/25 11:15:14;;;;;;;4.22;3.47;;;;;;;44.80;21.21;99925.92;1738745;81;21117;-85
2022/08/25 11:18:05;;;;;;;8.90;3.60;;;;;;;44.92;21.17;99921.37;1758844;81;21063;-86
2022/08/25 11:20:55;;;;;;;4.15;3.37;;;;;;;45.07;20.87;99912.96;1754953;81;20999;-83
2022/08/25 11:23:36;;;;;;;5.03;3.35;;;;;;;45.15;20.89;99907.58;1752823;81;21510;-83
2022/08/25 11:26:11;;;;;;;3.83;3.25;;;;;;;45.29;20.79;99903.39;1696561;83;21256;-84
2022/08/25 11:28:49;;;;;;;6.33;3.60;;;;;;;45.48;20.74;99912.00;1759704;81;20977;-84
2022/08/25 11:31:16;;;;;;;5.80;3.45;;;;;;;45.73;20.76;99899.98;1735932;81;21113;-84
2022/08/25 11:33:43;;;;;;;4.33;3.92;;;;;;;46.00;20.36;99897.50;1758005;81;20995;-82
2022/08/25 11:36:31;;;;;;;8.80;3.83;;;;;;;46.11;20.31;99901.68;1746640;81;21038;-78
2022/08/25 11:39:34;;;;;;;6.45;4.00;;;;;;;46.09;20.26;99893.69;1749120;81;21402;-77
2022/08/25 11:42:30;;;;;;;6.10;3.77;;;;;;;45.93;20.39;99900.31;1753526;81;21074;-79
2022/08/25 11:45:22;;;;;;;4.92;3.80;;;;;;;45.72;20.67;99903.98;1672291;85;21042;-81
2022/08/25 11:48:06;;;;;;;5.15;4.53;;;;;;;45.74;20.52;99904.38;1691427;81;21117;-78
2022/08/25 11:50:59;;;;;;;6.10;3.92;;;;;;;45.61;20.40;99896.97;1738089;81;21042;-78
2022/08/25 11:53:31;;;;;;;4.12;3.72;;;;;;;45.53;20.65;99897.58;1747415;80;21253;-80
2022/08/25 11:56:03;;;;;;;4.40;3.37;;;;;;;45.66;20.73;99885.92;1752954;81;21172;-81